createdAt,value
2022-10-31T00:01:30.622Z,18.08
2022-10-31T00:04:06.513Z,18.20
2022-10-31T00:06:38.498Z,18.18
2022-10-31T00:09:11.660Z,18.07
2022-10-31T00:11:43.608Z,18.05
2022-10-31T00:14:15.676Z,17.96
2022-10-31T00:16:47.697Z,17.99
2022-10-31T00:19:19.675Z,18.06
2022-10-31T00:21:53.385Z,18.06
2022-10-31T00:24:25.388Z,18.05
2022-10-31T00:26:57.373Z,18.03
2022-10-31T00:29:29.393Z,17.80
2022-10-31T00:32:03.206Z,17.88
2022-10-31T00:34:35.092Z,18.02
2022-10-31T00:37:07.107Z,17.85
2022-10-31T00:39:39.081Z,17.98
2022-10-31T00:42:11.006Z,17.94
2022-10-31T00:44:43.020Z,17.91
2022-10-31T00:47:14.924Z,17.94
2022-10-31T00:49:46.831Z,17.92
2022-10-31T00:52:18.821Z,17.89
2022-10-31T00:54:50.716Z,17.81
2022-10-31T00:57:22.695Z,17.84
2022-10-31T00:59:55.861Z,17.82
2022-10-31T01:02:27.911Z,17.53
2022-10-31T01:04:59.968Z,17.74
2022-10-31T01:07:32.339Z,17.74
2022-10-31T01:10:06.468Z,17.72
2022-10-31T01:12:48.404Z,17.64
2022-10-31T01:15:23.712Z,17.62
2022-10-31T01:17:55.622Z,17.42
2022-10-31T01:20:27.644Z,17.44
2022-10-31T01:22:59.547Z,17.59
2022-10-31T01:25:31.645Z,17.47
2022-10-31T01:28:03.818Z,17.52
2022-10-31T01:30:35.857Z,17.35
2022-10-31T01:33:07.920Z,17.48
2022-10-31T01:35:39.904Z,17.37
2022-10-31T01:38:11.839Z,17.39
2022-10-31T01:40:43.889Z,17.34
2022-10-31T01:43:16.346Z,17.41
2022-10-31T01:45:54.851Z,17.39
2022-10-31T01:48:29.161Z,17.17
2022-10-31T01:51:03.592Z,17.35
2022-10-31T01:53:37.536Z,17.33
2022-10-31T01:56:10.085Z,17.32
2022-10-31T01:58:43.308Z,17.18
2022-10-31T02:01:17.761Z,17.16
2022-10-31T02:03:50.247Z,17.02
2022-10-31T02:06:48.657Z,17.11
2022-10-31T02:09:24.485Z,17.15
2022-10-31T02:12:00.214Z,16.93
2022-10-31T02:14:32.941Z,17.06
2022-10-31T02:17:05.011Z,17.07
2022-10-31T02:20:06.093Z,16.99
2022-10-31T02:23:32.642Z,16.91
2022-10-31T02:26:46.515Z,16.87
2022-10-31T02:29:27.284Z,16.90
2022-10-31T02:32:21.466Z,16.84
2022-10-31T02:35:04.968Z,16.83
2022-10-31T02:37:57.251Z,16.71
2022-10-31T02:40:37.488Z,16.75
2022-10-31T02:43:32.402Z,16.62
2022-10-31T02:46:21.275Z,16.45
2022-10-31T02:48:59.966Z,16.68
2022-10-31T02:51:32.094Z,16.59
2022-10-31T02:54:04.320Z,16.60
2022-10-31T02:56:36.220Z,16.65
2022-10-31T02:59:08.226Z,16.40
2022-10-31T03:02:40.717Z,16.52
2022-10-31T03:05:34.682Z,16.56
2022-10-31T03:08:22.313Z,16.57
2022-10-31T03:11:08.153Z,16.58
2022-10-31T03:14:17.794Z,16.52
2022-10-31T03:16:58.685Z,16.36
2022-10-31T03:19:42.855Z,16.61
2022-10-31T03:22:22.304Z,16.57
2022-10-31T03:24:57.040Z,16.53
2022-10-31T03:27:35.223Z,16.57
2022-10-31T03:30:08.896Z,16.44
2022-10-31T03:32:50.411Z,16.48
2022-10-31T03:35:27.823Z,16.52
2022-10-31T03:38:05.463Z,16.47
2022-10-31T03:40:44.361Z,16.42
2022-10-31T03:43:25.542Z,16.39
2022-10-31T03:45:58.539Z,16.42
2022-10-31T03:48:30.852Z,16.29
2022-10-31T03:51:22.323Z,15.95
2022-10-31T03:54:02.265Z,16.26
2022-10-31T03:56:48.415Z,16.19
2022-10-31T03:59:34.280Z,16.09
2022-10-31T04:02:16.097Z,16.13
2022-10-31T04:04:50.166Z,16.24
2022-10-31T04:07:26.580Z,16.21
2022-10-31T04:10:02.830Z,16.16
2022-10-31T04:12:38.675Z,16.15
2022-10-31T04:15:11.850Z,16.04
2022-10-31T04:17:48.493Z,16.15
2022-10-31T04:20:34.204Z,16.04
2022-10-31T04:23:21.855Z,16.02
2022-10-31T04:25:53.907Z,16.13
2022-10-31T04:28:25.931Z,16.13
2022-10-31T04:30:57.954Z,15.99
2022-10-31T04:33:29.978Z,16.09
2022-10-31T04:36:04.821Z,16.09
2022-10-31T04:38:36.772Z,16.07
2022-10-31T04:41:08.762Z,16.16
2022-10-31T04:43:40.662Z,16.13
2022-10-31T04:46:12.578Z,16.17
2022-10-31T04:48:44.521Z,16.12
2022-10-31T04:51:16.609Z,16.01
2022-10-31T04:53:48.566Z,15.97
2022-10-31T04:56:20.935Z,16.12
2022-10-31T04:58:52.907Z,16.05
2022-10-31T05:01:25.074Z,15.90
2022-10-31T05:03:57.114Z,16.04
2022-10-31T05:06:29.059Z,16.10
2022-10-31T05:09:00.965Z,16.10
2022-10-31T05:11:32.996Z,16.10
2022-10-31T05:14:04.901Z,16.08
2022-10-31T05:16:36.856Z,16.05
2022-10-31T05:19:08.881Z,16.04
2022-10-31T05:21:40.877Z,16.00
2022-10-31T05:24:12.804Z,16.00
2022-10-31T05:26:44.800Z,15.92
2022-10-31T05:29:16.731Z,15.92
2022-10-31T05:31:48.717Z,15.90
2022-10-31T05:34:20.887Z,15.88
2022-10-31T05:36:52.824Z,15.85
2022-10-31T05:39:24.712Z,15.84
2022-10-31T05:41:56.834Z,15.72
2022-10-31T05:44:28.803Z,15.83
2022-10-31T05:47:00.725Z,15.80
2022-10-31T05:49:32.790Z,15.80
2022-10-31T05:52:05.125Z,15.63
2022-10-31T05:54:37.146Z,15.68
2022-10-31T05:57:09.591Z,15.58
2022-10-31T05:59:41.519Z,15.67
2022-10-31T06:02:13.546Z,15.68
2022-10-31T06:04:45.505Z,15.54
2022-10-31T06:07:17.567Z,15.50
2022-10-31T06:09:49.558Z,15.62
2022-10-31T06:12:21.527Z,15.28
2022-10-31T06:14:53.492Z,15.41
2022-10-31T06:17:25.455Z,15.55
2022-10-31T06:19:57.396Z,15.37
2022-10-31T06:22:29.522Z,15.52
2022-10-31T06:25:01.729Z,15.72
2022-10-31T06:27:33.879Z,15.56
2022-10-31T06:30:06.815Z,15.42
2022-10-31T06:32:38.887Z,15.49
2022-10-31T06:35:11.209Z,15.50
2022-10-31T06:37:45.497Z,15.50
2022-10-31T06:40:20.223Z,15.45
2022-10-31T06:43:05.177Z,15.47
2022-10-31T06:45:37.211Z,15.39
2022-10-31T06:48:17.054Z,15.45
2022-10-31T06:50:49.767Z,15.50
2022-10-31T06:53:21.711Z,15.34
2022-10-31T06:55:53.664Z,15.47
2022-10-31T06:58:25.722Z,15.54
2022-10-31T07:01:01.623Z,15.35
2022-10-31T07:03:33.761Z,15.40
2022-10-31T07:06:06.542Z,15.37
2022-10-31T07:08:38.553Z,15.60
2022-10-31T07:11:10.486Z,15.62
2022-10-31T07:13:42.431Z,15.64
2022-10-31T07:16:14.915Z,15.60
2022-10-31T07:18:46.864Z,15.56
2022-10-31T07:21:18.957Z,15.69
2022-10-31T07:23:51.003Z,15.76
2022-10-31T07:26:22.922Z,15.77
2022-10-31T07:28:54.846Z,15.77
2022-10-31T07:31:27.126Z,15.80
2022-10-31T07:33:59.083Z,15.81
2022-10-31T07:36:31.113Z,15.84
2022-10-31T07:39:06.473Z,15.78
2022-10-31T07:41:38.443Z,15.87
2022-10-31T07:44:10.455Z,15.96
2022-10-31T07:46:42.384Z,16.01
2022-10-31T07:49:14.315Z,15.95
2022-10-31T07:51:46.730Z,16.05
2022-10-31T07:54:18.804Z,15.97
2022-10-31T07:56:50.809Z,16.22
2022-10-31T07:59:22.771Z,16.22
2022-10-31T08:01:54.853Z,16.10
2022-10-31T08:04:26.825Z,16.42
2022-10-31T08:06:59.072Z,16.50
2022-10-31T08:09:31.153Z,16.51
2022-10-31T08:12:06.844Z,16.49
2022-10-31T08:14:38.723Z,16.58
2022-10-31T08:17:11.442Z,16.78
2022-10-31T08:19:43.251Z,16.86
2022-10-31T08:22:15.184Z,16.91
2022-10-31T08:24:47.065Z,16.92
2022-10-31T08:27:19.003Z,17.02
2022-10-31T08:29:51.057Z,17.10
2022-10-31T08:32:23.113Z,17.00
2022-10-31T08:34:55.000Z,17.27
2022-10-31T08:37:26.907Z,17.20
2022-10-31T08:39:58.920Z,17.30
2022-10-31T08:42:30.983Z,17.07
2022-10-31T08:45:06.427Z,17.06
2022-10-31T08:47:38.338Z,16.97
2022-10-31T08:50:10.341Z,16.91
2022-10-31T08:53:03.749Z,16.94
2022-10-31T08:55:39.398Z,16.86
2022-10-31T08:58:17.839Z,16.88
2022-10-31T09:00:54.344Z,16.88
2022-10-31T09:03:32.065Z,16.83
2022-10-31T09:06:06.740Z,16.91
2022-10-31T09:08:38.952Z,16.93
2022-10-31T09:11:10.959Z,17.01
2022-10-31T09:13:43.059Z,17.10
2022-10-31T09:16:15.030Z,17.24
2022-10-31T09:18:46.974Z,17.21
2022-10-31T09:21:18.905Z,17.36
2022-10-31T09:23:50.848Z,17.39
2022-10-31T09:26:22.993Z,17.49
2022-10-31T09:28:54.912Z,17.43
2022-10-31T09:31:26.939Z,17.58
2022-10-31T09:33:58.884Z,17.55
2022-10-31T09:36:31.321Z,17.55
2022-10-31T09:39:03.442Z,17.53
2022-10-31T09:42:29.727Z,17.42
2022-10-31T09:45:26.768Z,17.40
2022-10-31T09:48:49.893Z,17.29
2022-10-31T09:51:47.945Z,17.31
2022-10-31T09:54:41.251Z,17.43
2022-10-31T09:57:24.488Z,17.31
2022-10-31T09:59:57.722Z,17.45
2022-10-31T10:03:03.206Z,17.40
2022-10-31T10:06:25.565Z,17.18
2022-10-31T10:08:58.134Z,17.56
2022-10-31T10:11:58.916Z,17.55
2022-10-31T10:15:23.942Z,17.82
2022-10-31T10:18:07.341Z,18.00
2022-10-31T10:21:23.953Z,18.19
2022-10-31T10:24:20.078Z,18.27
2022-10-31T10:27:14.413Z,18.09
2022-10-31T10:30:18.478Z,18.31
2022-10-31T10:32:59.440Z,18.27
2022-10-31T10:35:39.213Z,18.31
2022-10-31T10:38:27.354Z,18.31
2022-10-31T10:41:06.078Z,18.35
2022-10-31T10:43:39.445Z,18.07
2022-10-31T10:46:54.792Z,18.36
2022-10-31T10:49:53.501Z,18.38
2022-10-31T10:52:54.913Z,18.43
2022-10-31T10:55:44.731Z,18.46
2022-10-31T10:58:17.347Z,18.50
2022-10-31T11:00:50.935Z,18.53
2022-10-31T11:03:23.082Z,18.52
2022-10-31T11:06:02.806Z,18.21
2022-10-31T11:08:37.502Z,18.59
2022-10-31T11:11:26.930Z,18.61
2022-10-31T11:14:05.745Z,18.68
2022-10-31T11:16:43.362Z,18.69
2022-10-31T11:19:27.509Z,18.72
2022-10-31T11:22:14.855Z,18.76
2022-10-31T11:24:47.936Z,18.76
2022-10-31T11:27:26.365Z,18.65
2022-10-31T11:30:08.750Z,18.65
2022-10-31T11:32:53.469Z,18.33
2022-10-31T11:35:26.695Z,18.83
2022-10-31T11:38:03.453Z,18.64
2022-10-31T11:40:36.072Z,18.90
2022-10-31T11:43:19.398Z,19.04
2022-10-31T11:45:51.895Z,19.11
2022-10-31T11:48:26.384Z,19.11
2022-10-31T11:50:59.565Z,18.83
2022-10-31T11:53:35.332Z,19.31
2022-10-31T11:56:17.798Z,19.42
2022-10-31T11:59:05.211Z,19.60
2022-10-31T12:01:47.117Z,19.52
2022-10-31T12:04:19.598Z,19.71
2022-10-31T12:06:53.808Z,19.71
2022-10-31T12:09:34.276Z,19.87
2022-10-31T12:12:33.883Z,19.79
2022-10-31T12:15:30.461Z,19.79
2022-10-31T12:19:07.166Z,19.70
2022-10-31T12:21:59.855Z,19.70
2022-10-31T12:25:19.372Z,19.67
2022-10-31T12:28:04.902Z,19.84
2022-10-31T12:31:35.168Z,19.98
2022-10-31T12:34:36.600Z,20.23
2022-10-31T12:37:32.095Z,20.64
2022-10-31T12:40:33.141Z,20.74
2022-10-31T12:43:50.732Z,20.74
2022-10-31T12:47:05.249Z,20.82
2022-10-31T12:50:21.185Z,20.96
2022-10-31T12:53:03.495Z,21.21
2022-10-31T12:56:03.403Z,21.37
2022-10-31T12:58:45.235Z,21.45
2022-10-31T13:01:50.364Z,21.28
2022-10-31T13:04:58.332Z,21.14
2022-10-31T13:07:45.147Z,21.28
2022-10-31T13:10:23.275Z,21.41
2022-10-31T13:13:05.911Z,21.67
2022-10-31T13:15:51.727Z,21.74
2022-10-31T13:18:48.902Z,21.68
2022-10-31T13:21:37.269Z,21.51
2022-10-31T13:24:19.630Z,21.47
2022-10-31T13:26:59.845Z,21.69
2022-10-31T13:29:55.744Z,21.97
2022-10-31T13:32:52.659Z,22.27
2022-10-31T13:35:37.675Z,22.55
2022-10-31T13:38:35.447Z,22.77
2022-10-31T13:41:35.316Z,22.99
2022-10-31T13:44:25.478Z,23.05
2022-10-31T13:46:59.067Z,23.16
2022-10-31T13:49:31.048Z,23.04
2022-10-31T13:52:24.204Z,22.81
2022-10-31T13:54:59.140Z,22.78
2022-10-31T13:57:42.917Z,22.41
2022-10-31T14:00:20.998Z,22.03
2022-10-31T14:02:58.328Z,21.66
2022-10-31T14:05:36.332Z,21.43
2022-10-31T14:08:24.436Z,21.20
2022-10-31T14:10:57.622Z,21.01
2022-10-31T14:13:42.621Z,21.11
2022-10-31T14:16:39.213Z,21.04
2022-10-31T14:19:23.953Z,20.97
2022-10-31T14:21:56.076Z,21.07
2022-10-31T14:24:27.942Z,21.28
2022-10-31T14:27:29.058Z,21.43
2022-10-31T14:30:16.846Z,21.44
2022-10-31T14:32:54.396Z,21.40
2022-10-31T14:35:56.691Z,21.14
2022-10-31T14:39:15.116Z,20.92
2022-10-31T14:42:06.849Z,20.79
2022-10-31T14:45:09.439Z,20.70
2022-10-31T14:47:49.649Z,20.84
2022-10-31T14:50:52.727Z,21.24
2022-10-31T14:53:28.516Z,21.64
2022-10-31T14:56:06.986Z,21.96
2022-10-31T14:58:44.030Z,21.93
2022-10-31T15:01:37.843Z,22.49
2022-10-31T15:04:25.513Z,22.54
2022-10-31T15:07:23.333Z,22.72
2022-10-31T15:10:03.801Z,22.71
2022-10-31T15:12:39.665Z,22.92
2022-10-31T15:15:27.231Z,22.64
2022-10-31T15:18:04.354Z,22.30
2022-10-31T15:20:46.297Z,21.97
2022-10-31T15:23:31.283Z,21.51
2022-10-31T15:26:07.166Z,21.48
2022-10-31T15:28:39.138Z,21.33
2022-10-31T15:31:18.110Z,20.97
2022-10-31T15:33:53.316Z,20.99
2022-10-31T15:36:29.204Z,20.86
2022-10-31T15:39:03.660Z,20.71
2022-10-31T15:41:55.241Z,20.44
2022-10-31T15:44:32.548Z,20.47
2022-10-31T15:47:25.570Z,20.15
2022-10-31T15:50:00.449Z,20.30
2022-10-31T15:52:48.026Z,20.09
2022-10-31T15:55:25.416Z,20.17
2022-10-31T15:58:05.704Z,20.11
2022-10-31T16:00:39.636Z,20.08
2022-10-31T16:03:21.013Z,20.01
2022-10-31T16:05:57.087Z,19.83
2022-10-31T16:08:32.102Z,19.93
2022-10-31T16:11:13.714Z,19.86
2022-10-31T16:14:18.496Z,19.72
2022-10-31T16:16:57.209Z,19.73
2022-10-31T16:19:40.133Z,19.61
2022-10-31T16:22:40.203Z,19.58
2022-10-31T16:25:25.466Z,19.49
2022-10-31T16:28:28.897Z,19.46
2022-10-31T16:31:15.264Z,19.64
2022-10-31T16:33:47.383Z,19.28
2022-10-31T16:36:39.038Z,19.61
2022-10-31T16:39:11.147Z,19.55
2022-10-31T16:41:47.112Z,19.35
2022-10-31T16:44:24.267Z,19.25
2022-10-31T16:47:15.831Z,19.40
2022-10-31T16:49:50.775Z,19.52
2022-10-31T16:52:22.817Z,19.49
2022-10-31T16:54:55.642Z,19.49
2022-10-31T16:57:31.872Z,19.38
2022-10-31T17:00:05.481Z,19.30
2022-10-31T17:02:39.036Z,18.71
2022-10-31T17:05:14.820Z,19.43
2022-10-31T17:07:48.089Z,19.31
2022-10-31T17:10:20.552Z,19.42
2022-10-31T17:12:53.577Z,18.65
2022-10-31T17:15:28.615Z,19.30
2022-10-31T17:18:00.925Z,19.20
2022-10-31T17:20:33.632Z,19.21
2022-10-31T17:23:05.746Z,19.15
2022-10-31T17:25:38.362Z,19.10
2022-10-31T17:28:15.038Z,19.10
2022-10-31T17:30:47.640Z,19.13
2022-10-31T17:33:19.538Z,19.12
2022-10-31T17:35:51.891Z,19.10
2022-10-31T17:38:23.924Z,19.04
2022-10-31T17:40:55.855Z,19.03
2022-10-31T17:43:27.902Z,18.81
2022-10-31T17:46:01.612Z,19.00
2022-10-31T17:48:36.107Z,18.90
2022-10-31T17:51:08.343Z,18.79
2022-10-31T17:53:40.348Z,18.79
2022-10-31T17:56:12.501Z,18.89
2022-10-31T17:58:44.606Z,18.70
2022-10-31T18:01:19.202Z,18.72
2022-10-31T18:03:51.208Z,18.35
2022-10-31T18:06:24.333Z,18.81
2022-10-31T18:08:58.176Z,18.80
2022-10-31T18:11:32.463Z,18.68
2022-10-31T18:14:04.588Z,18.42
2022-10-31T18:19:14.804Z,18.38
2022-10-31T18:21:46.940Z,18.73
2022-10-31T18:24:18.990Z,18.64
2022-10-31T18:26:51.371Z,18.72
2022-10-31T18:29:24.047Z,18.33
2022-10-31T18:31:56.083Z,18.57
2022-10-31T18:34:28.087Z,18.68
2022-10-31T18:37:00.250Z,18.55
2022-10-31T18:39:32.176Z,18.36
2022-10-31T18:42:04.323Z,18.10
2022-10-31T18:44:36.369Z,18.54
2022-10-31T18:47:08.441Z,18.44
2022-10-31T18:49:40.466Z,18.36
2022-10-31T18:52:12.518Z,18.02
2022-10-31T18:54:44.833Z,18.42
2022-10-31T18:57:17.054Z,18.38
2022-10-31T18:59:49.021Z,17.96
2022-10-31T19:02:21.255Z,17.91
2022-10-31T19:04:53.770Z,18.08
2022-10-31T19:07:25.828Z,17.67
2022-10-31T19:09:57.912Z,18.32
2022-10-31T19:12:33.240Z,18.40
2022-10-31T19:15:06.853Z,18.40
2022-10-31T19:17:38.902Z,18.37
2022-10-31T19:20:11.448Z,18.03
2022-10-31T19:22:46.870Z,17.94
2022-10-31T19:25:22.054Z,18.26
2022-10-31T19:27:54.029Z,18.26
2022-10-31T19:30:25.964Z,18.28
2022-10-31T19:32:58.024Z,18.25
2022-10-31T19:35:30.221Z,18.01
2022-10-31T19:38:03.037Z,18.11
2022-10-31T19:40:37.068Z,17.95
2022-10-31T19:43:09.120Z,17.99
2022-10-31T19:45:41.144Z,18.08
2022-10-31T19:48:13.109Z,18.00
2022-10-31T19:50:45.093Z,18.02
2022-10-31T19:53:17.600Z,17.60
2022-10-31T19:55:49.586Z,17.91
2022-10-31T19:58:21.531Z,17.91
2022-10-31T20:00:53.585Z,17.83
2022-10-31T20:03:25.708Z,17.94
2022-10-31T20:05:57.862Z,17.87
2022-10-31T20:08:30.003Z,17.11
2022-10-31T20:11:05.867Z,17.57
2022-10-31T20:13:38.243Z,17.35
2022-10-31T20:16:14.088Z,17.47
2022-10-31T20:18:47.158Z,17.95
2022-10-31T20:21:23.700Z,17.64
2022-10-31T20:23:58.411Z,17.90
2022-10-31T20:26:34.105Z,17.93
2022-10-31T20:29:06.214Z,17.78
2022-10-31T20:31:38.282Z,17.90
2022-10-31T20:34:10.808Z,17.89
2022-10-31T20:36:43.070Z,17.88
2022-10-31T20:39:15.043Z,17.86
2022-10-31T20:41:48.589Z,17.77
2022-10-31T20:44:20.595Z,17.33
2022-10-31T20:46:53.345Z,17.87
2022-10-31T20:49:25.471Z,17.76
2022-10-31T20:51:57.420Z,17.71
2022-10-31T20:54:29.501Z,17.69
2022-10-31T20:57:01.727Z,17.79
2022-10-31T20:59:33.680Z,17.80
2022-10-31T21:02:05.777Z,17.79
2022-10-31T21:04:37.874Z,17.62
2022-10-31T21:07:09.875Z,17.70
2022-10-31T21:09:41.880Z,17.68
2022-10-31T21:12:13.813Z,17.72
2022-10-31T21:14:45.748Z,17.54
2022-10-31T21:17:17.678Z,17.62
2022-10-31T21:19:49.713Z,17.52
2022-10-31T21:22:21.843Z,17.70
2022-10-31T21:24:53.964Z,17.69
2022-10-31T21:27:26.116Z,17.64
2022-10-31T21:29:58.397Z,17.71
2022-10-31T21:32:30.586Z,17.70
2022-10-31T21:35:05.599Z,17.66
2022-10-31T21:37:37.639Z,17.55
2022-10-31T21:40:10.484Z,17.68
2022-10-31T21:42:42.377Z,17.68
2022-10-31T21:45:14.411Z,17.66
2022-10-31T21:47:47.668Z,17.50
2022-10-31T21:50:19.595Z,17.67
2022-10-31T21:52:51.531Z,17.59
2022-10-31T21:55:23.490Z,17.67
2022-10-31T21:57:55.449Z,17.68
2022-10-31T22:00:27.469Z,17.67
2022-10-31T22:02:59.389Z,17.73
2022-10-31T22:05:31.401Z,17.74
2022-10-31T22:08:03.975Z,17.64
2022-10-31T22:10:36.088Z,17.76
2022-10-31T22:13:08.052Z,17.76
2022-10-31T22:15:39.964Z,17.77
2022-10-31T22:18:12.032Z,17.82
2022-10-31T22:20:45.074Z,17.85
2022-10-31T22:23:16.989Z,17.71
2022-10-31T22:25:48.980Z,17.75
2022-10-31T22:28:20.921Z,17.40
2022-10-31T22:30:52.822Z,17.65
2022-10-31T22:33:26.041Z,17.79
2022-10-31T22:36:03.121Z,17.55
2022-10-31T22:38:40.636Z,17.91
2022-10-31T22:41:19.628Z,17.82
2022-10-31T22:43:53.251Z,17.81
2022-10-31T22:46:29.262Z,17.77
2022-10-31T22:49:17.520Z,17.80
2022-10-31T22:51:50.960Z,17.70
2022-10-31T22:54:22.955Z,17.73
2022-10-31T22:56:55.398Z,17.89
2022-10-31T22:59:27.380Z,17.98
2022-10-31T23:01:59.424Z,17.92
2022-10-31T23:04:31.510Z,18.01
2022-10-31T23:07:03.773Z,18.01
2022-10-31T23:09:35.853Z,18.01
2022-10-31T23:12:26.604Z,18.03
2022-10-31T23:14:58.495Z,18.04
2022-10-31T23:17:30.500Z,18.05
2022-10-31T23:20:07.063Z,18.00
2022-10-31T23:22:39.140Z,17.90
2022-10-31T23:25:11.075Z,18.04
2022-10-31T23:27:42.954Z,18.08
2022-10-31T23:30:14.878Z,18.01
2022-10-31T23:32:46.883Z,17.96
2022-10-31T23:35:19.106Z,18.08
2022-10-31T23:37:51.030Z,18.09
2022-10-31T23:40:22.956Z,18.13
2022-10-31T23:42:54.877Z,18.06
2022-10-31T23:45:28.593Z,18.00
2022-10-31T23:48:00.819Z,18.16
2022-10-31T23:50:32.934Z,18.22
2022-10-31T23:53:05.101Z,18.22
2022-10-31T23:55:37.752Z,18.28
2022-10-31T23:58:09.676Z,18.23
